createdAt,value
2022-08-30T00:02:03.254Z,99446.53
2022-08-30T00:04:32.392Z,99443.09
2022-08-30T00:06:59.909Z,99441.94
2022-08-30T00:09:26.495Z,99441.13
2022-08-30T00:11:53.464Z,99442.03
2022-08-30T00:14:20.845Z,99435.94
2022-08-30T00:16:47.610Z,99444.06
2022-08-30T00:19:14.471Z,99440.06
2022-08-30T00:21:41.885Z,99437.78
2022-08-30T00:24:08.713Z,99433.19
2022-08-30T00:26:35.341Z,99443.09
2022-08-30T00:29:01.982Z,99436.94
2022-08-30T00:31:28.780Z,99436.56
2022-08-30T00:33:55.375Z,99442.31
2022-08-30T00:36:22.286Z,99446.28
2022-08-30T00:38:48.943Z,99452.16
2022-08-30T00:41:16.124Z,99454.03
2022-08-30T00:43:43.026Z,99453.56
2022-08-30T00:46:10.595Z,99449.06
2022-08-30T00:48:43.519Z,99448.03
2022-08-30T00:51:12.114Z,99449.78
2022-08-30T00:53:42.348Z,99452.13
2022-08-30T00:56:09.354Z,99454.56
2022-08-30T00:58:39.294Z,99454.06
2022-08-30T01:01:07.512Z,99451.34
2022-08-30T01:03:35.846Z,99461.72
2022-08-30T01:06:05.038Z,99458.69
2022-08-30T01:08:31.857Z,99453.03
2022-08-30T01:10:58.597Z,99452.53
2022-08-30T01:13:26.630Z,99455.19
2022-08-30T01:15:54.011Z,99452.31
2022-08-30T01:18:23.397Z,99449.91
2022-08-30T01:21:20.567Z,99455.72
2022-08-30T01:23:50.441Z,99459.34
2022-08-30T01:26:22.152Z,99453.59
2022-08-30T01:28:52.527Z,99458.31
2022-08-30T01:31:19.909Z,99449.16
2022-08-30T01:33:46.722Z,99438.66
2022-08-30T01:36:14.872Z,99438.97
2022-08-30T01:38:59.396Z,99435.38
2022-08-30T01:41:36.517Z,99446.81
2022-08-30T01:44:08.587Z,99443.19
2022-08-30T01:46:39.099Z,99454.13
2022-08-30T01:49:10.898Z,99451.47
2022-08-30T01:51:38.639Z,99457.22
2022-08-30T01:54:05.852Z,99462.00
2022-08-30T01:56:32.629Z,99467.66
2022-08-30T01:59:02.890Z,99454.50
2022-08-30T02:01:32.570Z,99452.91
2022-08-30T02:04:00.440Z,99458.00
2022-08-30T02:06:27.554Z,99446.22
2022-08-30T02:08:54.204Z,99443.03
2022-08-30T02:11:21.277Z,99447.94
2022-08-30T02:13:48.032Z,99444.19
2022-08-30T02:16:18.318Z,99449.47
2022-08-30T02:18:45.863Z,99455.66
2022-08-30T02:21:12.833Z,99456.09
2022-08-30T02:23:40.302Z,99458.56
2022-08-30T02:26:08.428Z,99460.25
2022-08-30T02:28:35.241Z,99456.53
2022-08-30T02:31:10.310Z,99454.00
2022-08-30T02:33:38.094Z,99447.78
2022-08-30T02:36:08.393Z,99447.03
2022-08-30T02:38:35.960Z,99446.06
2022-08-30T02:41:02.663Z,99443.72
2022-08-30T02:43:29.590Z,99436.50
2022-08-30T02:45:56.224Z,99434.75
2022-08-30T02:48:22.982Z,99442.06
2022-08-30T02:50:52.521Z,99447.84
2022-08-30T02:53:21.269Z,99450.50
2022-08-30T02:55:49.203Z,99441.91
2022-08-30T02:58:16.244Z,99430.13
2022-08-30T03:00:43.161Z,99428.34
2022-08-30T03:03:11.260Z,99435.19
2022-08-30T03:05:39.745Z,99431.84
2022-08-30T03:08:07.262Z,99431.56
2022-08-30T03:10:34.053Z,99418.31
2022-08-30T03:13:01.050Z,99422.56
2022-08-30T03:15:28.599Z,99423.53
2022-08-30T03:17:56.438Z,99423.00
2022-08-30T03:20:24.071Z,99426.16
2022-08-30T03:22:51.352Z,99430.69
2022-08-30T03:25:18.524Z,99430.13
2022-08-30T03:27:45.442Z,99423.56
2022-08-30T03:30:13.328Z,99427.59
2022-08-30T03:32:41.151Z,99428.25
2022-08-30T03:35:11.324Z,99423.25
2022-08-30T03:37:38.033Z,99440.34
2022-08-30T03:40:07.456Z,99444.78
2022-08-30T03:42:34.996Z,99447.50
2022-08-30T03:45:02.981Z,99444.28
2022-08-30T03:47:29.840Z,99451.59
2022-08-30T03:49:57.694Z,99443.28
2022-08-30T03:52:24.484Z,99446.56
2022-08-30T03:54:51.346Z,99445.19
2022-08-30T03:57:20.135Z,99450.13
2022-08-30T03:59:47.317Z,99453.31
2022-08-30T04:02:14.019Z,99440.72
2022-08-30T04:04:40.680Z,99438.53
2022-08-30T04:07:07.581Z,99445.19
2022-08-30T04:09:34.357Z,99452.88
2022-08-30T04:12:01.175Z,99464.66
2022-08-30T04:14:28.026Z,99456.16
2022-08-30T04:16:55.768Z,99458.22
2022-08-30T04:19:22.566Z,99461.13
2022-08-30T04:21:49.968Z,99457.00
2022-08-30T04:24:16.729Z,99451.47
2022-08-30T04:26:43.872Z,99461.19
2022-08-30T04:29:13.408Z,99458.16
2022-08-30T04:31:40.420Z,99457.84
2022-08-30T04:34:07.177Z,99457.47
2022-08-30T04:36:33.946Z,99454.69
2022-08-30T04:39:00.834Z,99459.56
2022-08-30T04:41:29.181Z,99464.28
2022-08-30T04:43:56.111Z,99460.78
2022-08-30T04:46:23.451Z,99470.47
2022-08-30T04:48:50.241Z,99466.41
2022-08-30T04:51:17.853Z,99459.06
2022-08-30T04:53:46.992Z,99464.16
2022-08-30T04:56:16.895Z,99474.81
2022-08-30T04:58:47.589Z,99473.16
2022-08-30T05:01:18.936Z,99480.38
2022-08-30T05:03:48.377Z,99480.88
2022-08-30T05:06:15.978Z,99481.44
2022-08-30T05:08:46.101Z,99482.69
2022-08-30T05:11:15.030Z,99486.34
2022-08-30T05:13:41.801Z,99481.25
2022-08-30T05:16:09.181Z,99492.44
2022-08-30T05:18:36.860Z,99490.47
2022-08-30T05:21:10.385Z,99491.13
2022-08-30T05:23:38.254Z,99492.94
2022-08-30T05:26:33.612Z,99496.88
2022-08-30T05:29:01.611Z,99496.75
2022-08-30T05:31:31.126Z,99499.09
2022-08-30T05:33:58.047Z,99491.84
2022-08-30T05:36:27.784Z,99495.56
2022-08-30T05:38:55.713Z,99493.38
2022-08-30T05:41:26.549Z,99494.88
2022-08-30T05:43:55.572Z,99502.50
2022-08-30T05:46:23.098Z,99491.53
2022-08-30T05:48:50.435Z,99495.63
2022-08-30T05:51:21.414Z,99496.47
2022-08-30T05:53:49.539Z,99504.34
2022-08-30T05:56:18.915Z,99500.13
2022-08-30T05:58:45.791Z,99502.56
2022-08-30T06:01:25.205Z,99500.75
2022-08-30T06:03:53.804Z,99500.56
2022-08-30T06:06:20.919Z,99498.38
2022-08-30T06:08:48.663Z,99498.78
2022-08-30T06:11:19.470Z,99502.03
2022-08-30T06:13:48.948Z,99502.28
2022-08-30T06:16:18.892Z,99499.72
2022-08-30T06:18:48.104Z,99502.75
2022-08-30T06:21:20.835Z,99500.81
2022-08-30T06:23:49.553Z,99499.25
2022-08-30T06:26:19.379Z,99506.19
2022-08-30T06:28:48.509Z,99505.34
2022-08-30T06:31:18.426Z,99501.94
2022-08-30T06:33:46.799Z,99498.19
2022-08-30T06:36:22.183Z,99488.22
2022-08-30T06:38:54.439Z,99496.81
2022-08-30T06:41:24.661Z,99494.34
2022-08-30T06:43:52.084Z,99479.47
2022-08-30T06:46:27.841Z,99487.63
2022-08-30T06:48:56.294Z,99485.00
2022-08-30T06:51:30.409Z,99489.66
2022-08-30T06:53:58.304Z,99488.69
2022-08-30T06:56:27.425Z,99498.47
2022-08-30T06:58:55.185Z,99496.16
2022-08-30T07:01:25.288Z,99497.00
2022-08-30T07:03:52.378Z,99491.69
2022-08-30T07:06:20.120Z,99489.72
2022-08-30T07:08:47.724Z,99490.69
2022-08-30T07:11:15.158Z,99503.22
2022-08-30T07:13:42.142Z,99501.16
2022-08-30T07:16:13.656Z,99494.88
2022-08-30T07:18:56.221Z,99503.38
2022-08-30T07:21:43.994Z,99498.94
2022-08-30T07:24:12.090Z,99502.81
2022-08-30T07:26:42.341Z,99504.22
2022-08-30T07:29:10.688Z,99506.09
2022-08-30T07:31:37.847Z,99505.31
2022-08-30T07:34:06.224Z,99502.00
2022-08-30T07:36:33.853Z,99497.91
2022-08-30T07:39:01.839Z,99503.03
2022-08-30T07:41:31.879Z,99505.88
2022-08-30T07:43:58.963Z,99499.41
2022-08-30T07:46:28.014Z,99514.19
2022-08-30T07:48:55.404Z,99504.88
2022-08-30T07:51:25.516Z,99500.75
2022-08-30T07:53:52.960Z,99503.75
2022-08-30T07:56:21.152Z,99507.81
2022-08-30T07:58:49.201Z,99494.84
2022-08-30T08:01:17.297Z,99493.31
2022-08-30T08:03:44.935Z,99488.34
2022-08-30T08:06:14.193Z,99494.56
2022-08-30T08:08:41.800Z,99489.59
2022-08-30T08:11:16.270Z,99502.28
2022-08-30T08:13:48.957Z,99496.19
2022-08-30T08:16:23.825Z,99494.25
2022-08-30T08:18:51.979Z,99497.53
2022-08-30T08:21:18.873Z,99494.03
2022-08-30T08:23:45.667Z,99500.13
2022-08-30T08:26:12.524Z,99494.84
2022-08-30T08:28:39.719Z,99494.94
2022-08-30T08:31:36.441Z,99493.44
2022-08-30T08:34:06.168Z,99494.19
2022-08-30T08:36:34.148Z,99502.25
2022-08-30T08:39:01.985Z,99491.03
2022-08-30T08:41:43.849Z,99492.28
2022-08-30T08:44:34.614Z,99491.72
2022-08-30T08:47:48.062Z,99491.38
2022-08-30T08:50:20.180Z,99484.88
2022-08-30T08:53:45.507Z,99481.25
2022-08-30T08:56:16.621Z,99493.41
2022-08-30T08:58:47.754Z,99491.00
2022-08-30T09:01:18.247Z,99492.47
2022-08-30T09:03:45.752Z,99491.91
2022-08-30T09:07:06.574Z,99488.38
2022-08-30T09:09:36.263Z,99484.47
2022-08-30T09:12:05.123Z,99481.81
2022-08-30T09:14:35.693Z,99487.56
2022-08-30T09:17:06.858Z,99487.34
2022-08-30T09:19:40.441Z,99482.59
2022-08-30T09:22:29.186Z,99483.41
2022-08-30T09:25:21.161Z,99479.25
2022-08-30T09:27:49.758Z,99487.47
2022-08-30T09:30:25.953Z,99474.81
2022-08-30T09:33:02.113Z,99477.41
2022-08-30T09:35:49.524Z,99479.63
2022-08-30T09:38:25.119Z,99475.69
2022-08-30T09:40:55.321Z,99479.97
2022-08-30T09:43:28.405Z,99480.94
2022-08-30T09:46:21.513Z,99467.56
2022-08-30T09:48:48.758Z,99475.81
2022-08-30T09:51:43.203Z,99467.53
2022-08-30T09:54:31.970Z,99462.78
2022-08-30T09:57:16.812Z,99463.91
2022-08-30T09:59:51.493Z,99462.44
2022-08-30T10:02:32.187Z,99451.19
2022-08-30T10:05:13.530Z,99450.25
2022-08-30T10:07:59.000Z,99460.63
2022-08-30T10:10:47.623Z,99448.78
2022-08-30T10:13:54.317Z,99455.53
2022-08-30T10:16:46.060Z,99451.75
2022-08-30T10:19:39.918Z,99453.00
2022-08-30T10:22:31.937Z,99451.16
2022-08-30T10:25:16.031Z,99451.75
2022-08-30T10:27:59.717Z,99448.88
2022-08-30T10:30:28.182Z,99446.00
2022-08-30T10:33:00.811Z,99446.31
2022-08-30T10:35:38.640Z,99441.28
2022-08-30T10:38:14.054Z,99445.25
2022-08-30T10:41:03.658Z,99441.59
2022-08-30T10:43:39.192Z,99439.88
2022-08-30T10:46:10.775Z,99439.66
2022-08-30T10:48:41.505Z,99431.84
2022-08-30T10:51:27.268Z,99434.75
2022-08-30T10:54:04.883Z,99433.50
2022-08-30T10:56:36.319Z,99435.59
2022-08-30T10:59:05.414Z,99432.53
2022-08-30T11:04:40.047Z,99436.25
2022-08-30T11:07:49.316Z,99433.28
2022-08-30T11:10:37.788Z,99439.66
2022-08-30T11:13:26.189Z,99433.09
2022-08-30T11:16:01.893Z,99425.97
2022-08-30T11:18:51.923Z,99437.47
2022-08-30T11:21:37.372Z,99437.31
2022-08-30T11:24:07.794Z,99433.53
2022-08-30T11:26:51.516Z,99428.50
2022-08-30T11:29:53.028Z,99428.84
2022-08-30T11:32:23.088Z,99423.28
2022-08-30T11:34:56.895Z,99416.25
2022-08-30T11:37:42.509Z,99416.19
2022-08-30T11:40:48.413Z,99419.94
2022-08-30T11:43:56.305Z,99418.72
2022-08-30T11:46:41.801Z,99421.84
2022-08-30T11:49:32.611Z,99412.28
2022-08-30T11:52:28.496Z,99418.09
2022-08-30T11:55:12.491Z,99414.47
2022-08-30T11:57:50.891Z,99402.28
2022-08-30T12:00:40.807Z,99402.91
2022-08-30T12:03:37.219Z,99407.09
2022-08-30T12:06:06.664Z,99395.94
2022-08-30T12:08:45.570Z,99398.50
2022-08-30T12:11:43.125Z,99392.94
2022-08-30T12:14:41.438Z,99391.69
2022-08-30T12:17:35.334Z,99388.38
2022-08-30T12:20:02.129Z,99391.38
2022-08-30T12:22:30.983Z,99389.47
2022-08-30T12:24:58.112Z,99388.78
2022-08-30T12:27:33.447Z,99381.16
2022-08-30T12:30:07.646Z,99381.75
2022-08-30T12:32:46.063Z,99382.81
2022-08-30T12:35:21.325Z,99371.19
2022-08-30T12:37:57.310Z,99388.75
2022-08-30T12:40:25.575Z,99379.16
2022-08-30T12:42:55.422Z,99382.00
2022-08-30T12:45:25.908Z,99384.19
2022-08-30T12:48:11.267Z,99380.22
2022-08-30T12:50:53.723Z,99378.25
2022-08-30T12:53:28.760Z,99370.34
2022-08-30T12:56:10.748Z,99369.31
2022-08-30T12:58:55.815Z,99367.78
2022-08-30T13:01:33.335Z,99359.56
2022-08-30T13:04:14.954Z,99367.66
2022-08-30T13:06:49.045Z,99365.78
2022-08-30T13:09:37.320Z,99359.59
2022-08-30T13:12:07.407Z,99362.31
2022-08-30T13:14:43.455Z,99362.78
2022-08-30T13:17:19.482Z,99361.00
2022-08-30T13:20:22.568Z,99355.94
2022-08-30T13:23:07.931Z,99363.56
2022-08-30T13:25:36.636Z,99351.91
2022-08-30T13:28:04.838Z,99348.44
2022-08-30T13:30:32.701Z,99354.38
2022-08-30T13:33:01.495Z,99349.44
2022-08-30T13:35:30.488Z,99352.88
2022-08-30T13:37:57.837Z,99357.63
2022-08-30T13:40:25.107Z,99355.66
2022-08-30T13:42:52.059Z,99349.16
2022-08-30T13:48:06.958Z,99353.72
2022-08-30T13:50:33.561Z,99347.06
2022-08-30T13:53:00.504Z,99351.38
2022-08-30T13:55:28.253Z,99348.41
2022-08-30T13:57:56.128Z,99340.59
2022-08-30T14:00:25.167Z,99340.97
2022-08-30T14:02:57.466Z,99351.13
2022-08-30T14:11:11.982Z,99343.59
2022-08-30T14:14:14.790Z,99336.50
2022-08-30T14:16:27.825Z,99347.69
2022-08-30T14:18:55.780Z,99346.41
2022-08-30T14:21:24.849Z,99336.50
2022-08-30T14:23:56.619Z,99336.25
2022-08-30T14:26:32.388Z,99332.03
2022-08-30T14:29:01.852Z,99331.81
2022-08-30T14:31:30.286Z,99333.44
2022-08-30T14:33:59.707Z,99334.75
2022-08-30T14:36:26.446Z,99333.59
2022-08-30T14:38:56.278Z,99328.53
2022-08-30T14:41:23.035Z,99323.81
2022-08-30T14:43:51.410Z,99328.38
2022-08-30T14:46:18.205Z,99326.31
2022-08-30T14:48:45.140Z,99329.22
2022-08-30T14:51:18.622Z,99327.31
2022-08-30T14:53:46.111Z,99334.88
2022-08-30T14:56:16.476Z,99326.69
2022-08-30T14:58:47.302Z,99321.72
2022-08-30T15:01:14.551Z,99318.78
2022-08-30T15:03:41.760Z,99329.47
2022-08-30T15:06:09.379Z,99322.50
2022-08-30T15:08:38.312Z,99317.06
2022-08-30T15:11:14.414Z,99314.13
2022-08-30T15:13:42.482Z,99324.44
2022-08-30T15:16:19.401Z,99317.06
2022-08-30T15:18:46.460Z,99313.69
2022-08-30T15:21:13.540Z,99315.78
2022-08-30T15:23:40.839Z,99311.91
2022-08-30T15:26:08.979Z,99304.41
2022-08-30T15:28:37.197Z,99308.63
2022-08-30T15:31:08.629Z,99302.31
2022-08-30T15:33:37.506Z,99298.22
2022-08-30T15:36:05.814Z,99287.81
2022-08-30T15:38:32.803Z,99289.78
2022-08-30T15:41:03.707Z,99290.72
2022-08-30T15:43:31.480Z,99281.59
2022-08-30T15:46:16.159Z,99286.41
2022-08-30T15:48:45.825Z,99288.25
2022-08-30T15:51:13.887Z,99289.31
2022-08-30T15:53:40.970Z,99281.00
2022-08-30T15:56:07.942Z,99295.53
2022-08-30T15:58:35.387Z,99283.84
2022-08-30T16:01:02.561Z,99290.38
2022-08-30T16:03:29.484Z,99286.94
2022-08-30T16:05:57.481Z,99280.91
2022-08-30T16:08:24.368Z,99282.66
2022-08-30T16:10:52.743Z,99283.88
2022-08-30T16:13:20.034Z,99277.22
2022-08-30T16:15:47.037Z,99283.66
2022-08-30T16:18:15.610Z,99275.28
2022-08-30T16:20:44.352Z,99273.75
2022-08-30T16:23:11.668Z,99277.88
2022-08-30T16:25:40.603Z,99283.22
2022-08-30T16:28:09.316Z,99279.34
2022-08-30T16:30:36.731Z,99273.47
2022-08-30T16:33:03.546Z,99275.81
2022-08-30T16:35:30.228Z,99275.56
2022-08-30T16:37:57.108Z,99268.91
2022-08-30T16:40:24.076Z,99271.50
2022-08-30T16:42:50.876Z,99276.59
2022-08-30T16:45:17.966Z,99276.75
2022-08-30T16:47:46.253Z,99269.91
2022-08-30T16:50:13.116Z,99274.06
2022-08-30T16:52:43.965Z,99274.59
2022-08-30T16:55:11.098Z,99274.69
2022-08-30T16:57:38.748Z,99271.19
2022-08-30T17:02:55.954Z,99273.88
2022-08-30T17:05:23.270Z,99280.22
2022-08-30T17:07:50.468Z,99279.06
2022-08-30T17:10:23.033Z,99285.34
2022-08-30T17:12:50.331Z,99283.91
2022-08-30T17:15:17.686Z,99280.63
2022-08-30T17:17:44.660Z,99291.22
2022-08-30T17:20:12.123Z,99293.22
2022-08-30T17:22:38.823Z,99293.25
2022-08-30T17:25:07.089Z,99290.81
2022-08-30T17:27:34.248Z,99293.75
2022-08-30T17:30:00.853Z,99290.53
2022-08-30T17:32:27.637Z,99298.25
2022-08-30T17:34:54.333Z,99299.28
2022-08-30T17:37:21.023Z,99298.13
2022-08-30T17:39:48.281Z,99306.44
2022-08-30T17:42:15.871Z,99300.44
2022-08-30T17:44:42.658Z,99301.97
2022-08-30T17:47:09.794Z,99305.94
2022-08-30T17:49:36.970Z,99308.00
2022-08-30T17:52:04.652Z,99306.69
2022-08-30T17:54:33.469Z,99313.81
2022-08-30T17:57:00.827Z,99311.13
2022-08-30T17:59:29.331Z,99310.09
2022-08-30T18:02:00.196Z,99321.84
2022-08-30T18:04:27.269Z,99312.06
2022-08-30T18:06:57.587Z,99323.63
2022-08-30T18:09:24.537Z,99326.09
2022-08-30T18:11:56.339Z,99326.50
2022-08-30T18:14:23.530Z,99327.94
2022-08-30T18:16:54.342Z,99325.91
2022-08-30T18:19:37.026Z,99324.47
2022-08-30T18:22:13.137Z,99335.38
2022-08-30T18:24:40.122Z,99347.13
2022-08-30T18:27:07.539Z,99350.63
2022-08-30T18:29:37.846Z,99343.22
2022-08-30T18:32:05.728Z,99351.66
2022-08-30T18:34:36.173Z,99349.59
2022-08-30T18:37:02.740Z,99352.50
2022-08-30T18:39:34.122Z,99362.38
2022-08-30T18:42:02.619Z,99359.28
2022-08-30T18:44:33.365Z,99366.69
2022-08-30T18:47:03.678Z,99363.81
2022-08-30T18:49:32.513Z,99360.09
2022-08-30T18:52:00.688Z,99366.91
2022-08-30T18:54:27.859Z,99374.69
2022-08-30T18:56:54.815Z,99368.94
2022-08-30T18:59:21.771Z,99369.72
2022-08-30T19:01:49.666Z,99366.03
2022-08-30T19:04:30.089Z,99369.72
2022-08-30T19:07:02.731Z,99375.91
2022-08-30T19:09:29.480Z,99374.44
2022-08-30T19:11:56.141Z,99383.19
2022-08-30T19:14:22.940Z,99378.28
2022-08-30T19:16:49.861Z,99375.41
2022-08-30T19:19:16.928Z,99377.63
2022-08-30T19:21:43.724Z,99380.53
2022-08-30T19:24:11.645Z,99379.88
2022-08-30T19:26:38.647Z,99382.81
2022-08-30T19:29:06.912Z,99398.00
2022-08-30T19:31:34.144Z,99382.56
2022-08-30T19:34:01.000Z,99380.91
2022-08-30T19:36:29.013Z,99394.25
2022-08-30T19:38:56.194Z,99394.88
2022-08-30T19:41:24.285Z,99395.19
2022-08-30T19:43:51.161Z,99397.84
2022-08-30T19:46:17.870Z,99397.69
2022-08-30T19:48:44.822Z,99399.69
2022-08-30T19:51:13.769Z,99397.44
2022-08-30T19:53:42.056Z,99405.63
2022-08-30T19:56:09.027Z,99404.81
2022-08-30T19:58:36.050Z,99402.19
2022-08-30T20:01:10.572Z,99397.44
2022-08-30T20:03:40.057Z,99389.63
2022-08-30T20:06:07.401Z,99386.22
2022-08-30T20:08:34.380Z,99389.38
2022-08-30T20:11:01.228Z,99391.78
2022-08-30T20:13:28.469Z,99397.94
2022-08-30T20:16:00.880Z,99384.66
2022-08-30T20:18:29.083Z,99386.47
2022-08-30T20:20:55.971Z,99384.81
2022-08-30T20:23:26.231Z,99382.75
2022-08-30T20:24:23.218Z,99283.16
2022-08-30T20:25:54.887Z,99381.56
2022-08-30T20:28:22.461Z,99383.56
2022-08-30T20:30:50.228Z,99388.50
2022-08-30T20:33:18.091Z,99393.94
2022-08-30T20:35:48.987Z,99388.78
2022-08-30T20:38:22.657Z,99382.56
2022-08-30T20:40:55.242Z,99391.13
2022-08-30T20:43:25.939Z,99385.53
2022-08-30T20:45:53.716Z,99386.13
2022-08-30T20:48:20.706Z,99386.81
2022-08-30T20:50:47.785Z,99391.41
2022-08-30T20:53:14.382Z,99382.16
2022-08-30T20:55:46.291Z,99392.13
2022-08-30T20:58:14.445Z,99395.66
2022-08-30T21:00:45.687Z,99388.63
2022-08-30T21:03:28.035Z,99382.94
2022-08-30T21:05:55.978Z,99389.56
2022-08-30T21:08:24.891Z,99386.59
2022-08-30T21:10:52.581Z,99393.47
2022-08-30T21:13:19.227Z,99395.34
2022-08-30T21:18:15.351Z,99405.63
2022-08-30T21:20:42.386Z,99409.41
2022-08-30T21:23:09.703Z,99406.09
2022-08-30T21:25:43.974Z,99407.81
2022-08-30T21:28:11.398Z,99411.44
2022-08-30T21:30:38.684Z,99404.94
2022-08-30T21:33:07.520Z,99409.19
2022-08-30T21:35:56.496Z,99420.16
2022-08-30T21:38:23.169Z,99416.81
2022-08-30T21:40:50.002Z,99416.22
2022-08-30T21:43:16.931Z,99413.97
2022-08-30T21:45:45.106Z,99422.75
2022-08-30T21:48:13.394Z,99417.16
2022-08-30T21:50:41.784Z,99419.28
2022-08-30T21:53:08.712Z,99421.53
2022-08-30T21:55:36.696Z,99426.50
2022-08-30T21:58:04.086Z,99419.69
2022-08-30T22:00:31.866Z,99423.56
2022-08-30T22:02:58.726Z,99428.66
2022-08-30T22:05:25.637Z,99424.84
2022-08-30T22:07:52.437Z,99431.59
2022-08-30T22:10:21.220Z,99424.50
2022-08-30T22:12:47.980Z,99427.41
2022-08-30T22:15:15.666Z,99433.06
2022-08-30T22:17:43.169Z,99433.53
2022-08-30T22:20:10.469Z,99430.31
2022-08-30T22:22:38.216Z,99436.59
2022-08-30T22:25:05.640Z,99439.19
2022-08-30T22:27:32.357Z,99440.94
2022-08-30T22:29:59.292Z,99441.09
2022-08-30T22:32:25.917Z,99434.81
2022-08-30T22:34:52.696Z,99440.13
2022-08-30T22:37:19.390Z,99437.72
2022-08-30T22:39:46.292Z,99438.72
2022-08-30T22:42:13.859Z,99439.19
2022-08-30T22:44:41.050Z,99441.03
2022-08-30T22:47:09.423Z,99445.53
2022-08-30T22:49:36.436Z,99442.50
2022-08-30T22:52:03.575Z,99443.78
2022-08-30T22:54:31.467Z,99449.75
2022-08-30T22:56:58.466Z,99448.75
2022-08-30T22:59:31.275Z,99447.81
2022-08-30T23:01:59.994Z,99449.47
2022-08-30T23:04:26.720Z,99446.06
2022-08-30T23:06:53.538Z,99443.25
2022-08-30T23:09:21.222Z,99452.03
2022-08-30T23:11:48.089Z,99453.03
2022-08-30T23:14:15.081Z,99448.91
2022-08-30T23:16:41.745Z,99453.97
2022-08-30T23:19:08.510Z,99456.44
2022-08-30T23:21:35.203Z,99456.34
2022-08-30T23:24:20.487Z,99455.13
2022-08-30T23:27:06.532Z,99470.38
2022-08-30T23:29:53.281Z,99462.94
2022-08-30T23:32:40.018Z,99464.91
2022-08-30T23:35:29.403Z,99451.44
2022-08-30T23:38:18.306Z,99449.97
2022-08-30T23:41:03.504Z,99452.19
2022-08-30T23:43:48.733Z,99454.13
2022-08-30T23:46:34.141Z,99457.31
2022-08-30T23:49:20.428Z,99455.59
2022-08-30T23:52:05.788Z,99463.69
2022-08-30T23:54:51.274Z,99455.34
2022-08-30T23:57:36.817Z,99457.25
